createdAt,value
2017-11-22T00:01:14.531Z,4.30
2017-11-22T00:03:42.304Z,4.20
2017-11-22T00:06:09.300Z,4.20
2017-11-22T00:08:36.312Z,4.30
2017-11-22T00:11:03.312Z,4.30
2017-11-22T00:13:30.313Z,4.30
2017-11-22T00:15:57.324Z,4.40
2017-11-22T00:18:24.331Z,4.30
2017-11-22T00:20:51.321Z,4.40
2017-11-22T00:23:19.095Z,4.40
2017-11-22T00:25:46.860Z,4.30
2017-11-22T00:28:14.627Z,4.30
2017-11-22T00:30:41.619Z,4.30
2017-11-22T00:33:08.616Z,4.20
2017-11-22T00:35:35.611Z,4.20
2017-11-22T00:38:02.615Z,4.00
2017-11-22T00:40:29.619Z,4.10
2017-11-22T00:42:56.632Z,4.00
2017-11-22T00:45:23.624Z,3.90
2017-11-22T00:47:51.395Z,3.90
2017-11-22T00:50:19.160Z,3.90
2017-11-22T00:52:46.929Z,3.90
2017-11-22T00:55:14.687Z,3.90
2017-11-22T00:57:42.455Z,4.00
2017-11-22T01:00:09.456Z,3.90
2017-11-22T01:02:36.456Z,4.00
2017-11-22T01:05:03.452Z,4.00
2017-11-22T01:07:30.447Z,4.00
2017-11-22T01:09:57.440Z,4.00
2017-11-22T01:12:24.445Z,4.00
2017-11-22T01:14:51.436Z,3.90
2017-11-22T01:17:18.458Z,3.90
2017-11-22T01:19:45.451Z,3.90
2017-11-22T01:22:13.212Z,3.80
2017-11-22T01:24:40.975Z,3.80
2017-11-22T01:27:08.733Z,3.70
2017-11-22T01:29:35.744Z,3.70
2017-11-22T01:32:02.740Z,3.80
2017-11-22T01:34:30.503Z,3.80
2017-11-22T01:36:58.269Z,3.80
2017-11-22T01:39:26.043Z,3.80
2017-11-22T01:41:53.044Z,3.80
2017-11-22T01:44:20.052Z,3.80
2017-11-22T01:46:47.056Z,3.80
2017-11-22T01:49:14.823Z,3.80
2017-11-22T01:51:42.575Z,3.80
2017-11-22T01:54:09.588Z,3.80
2017-11-22T01:56:36.579Z,3.80
2017-11-22T01:59:04.344Z,3.90
2017-11-22T02:01:32.107Z,3.80
2017-11-22T02:03:59.872Z,3.80
2017-11-22T02:06:27.635Z,3.80
2017-11-22T02:08:55.401Z,3.80
2017-11-22T02:11:23.164Z,3.70
2017-11-22T02:13:50.924Z,3.70
2017-11-22T02:16:18.686Z,3.60
2017-11-22T02:18:46.452Z,3.40
2017-11-22T02:21:14.199Z,3.50
2017-11-22T02:23:41.207Z,3.50
2017-11-22T02:26:08.200Z,3.50
2017-11-22T02:28:35.991Z,3.30
2017-11-22T02:31:02.992Z,3.30
2017-11-22T02:33:29.995Z,3.20
2017-11-22T02:35:56.995Z,3.20
2017-11-22T02:38:24.760Z,3.30
2017-11-22T02:40:52.527Z,3.30
2017-11-22T02:43:20.288Z,3.30
2017-11-22T02:45:48.051Z,3.30
2017-11-22T02:48:15.806Z,3.30
2017-11-22T02:50:42.817Z,3.20
2017-11-22T02:53:09.809Z,3.20
2017-11-22T02:55:37.574Z,3.20
2017-11-22T02:58:05.339Z,3.10
2017-11-22T03:00:33.108Z,3.00
2017-11-22T03:03:00.863Z,3.10
2017-11-22T03:05:28.630Z,3.10
2017-11-22T03:07:56.390Z,3.10
2017-11-22T03:10:24.161Z,3.10
2017-11-22T03:12:51.920Z,3.20
2017-11-22T03:15:19.683Z,3.10
2017-11-22T03:17:47.448Z,3.20
2017-11-22T03:20:15.215Z,3.10
2017-11-22T03:22:42.224Z,3.10
2017-11-22T03:25:09.231Z,3.10
2017-11-22T03:27:36.222Z,3.10
2017-11-22T03:30:03.236Z,3.10
2017-11-22T03:32:30.231Z,3.20
2017-11-22T03:34:57.228Z,3.20
2017-11-22T03:37:24.215Z,3.10
2017-11-22T03:39:51.219Z,3.10
2017-11-22T03:42:18.223Z,3.10
2017-11-22T03:44:45.244Z,3.10
2017-11-22T03:47:12.245Z,3.10
2017-11-22T03:49:44.935Z,3.10
2017-11-22T03:52:17.615Z,3.00
2017-11-22T03:54:44.617Z,3.00
2017-11-22T03:57:11.624Z,3.00
2017-11-22T03:59:38.621Z,3.00
2017-11-22T04:02:05.637Z,3.00
2017-11-22T04:04:33.400Z,3.10
2017-11-22T04:07:01.164Z,3.10
2017-11-22T04:09:28.931Z,3.00
2017-11-22T04:11:57.555Z,2.90
2017-11-22T04:14:24.548Z,2.90
2017-11-22T04:16:51.567Z,2.80
2017-11-22T04:19:22.532Z,2.80
2017-11-22T04:21:49.529Z,2.80
2017-11-22T04:24:16.523Z,2.80
2017-11-22T04:26:43.525Z,2.80
2017-11-22T04:29:10.529Z,2.70
2017-11-22T04:31:38.300Z,2.50
2017-11-22T04:34:05.304Z,2.50
2017-11-22T04:36:32.306Z,2.50
2017-11-22T04:38:59.299Z,2.60
2017-11-22T04:41:26.303Z,2.40
2017-11-22T04:43:53.303Z,2.50
2017-11-22T04:46:20.319Z,2.40
2017-11-22T04:48:47.316Z,2.40
2017-11-22T04:51:15.081Z,2.50
2017-11-22T04:53:42.092Z,2.50
2017-11-22T04:56:09.114Z,2.40
2017-11-22T04:58:36.106Z,2.50
2017-11-22T05:01:03.871Z,2.50
2017-11-22T05:03:31.643Z,2.50
2017-11-22T05:05:58.636Z,2.50
2017-11-22T05:08:25.634Z,2.50
2017-11-22T05:10:53.399Z,2.60
2017-11-22T05:13:21.168Z,2.50
2017-11-22T05:15:48.923Z,2.50
2017-11-22T05:18:15.936Z,2.50
2017-11-22T05:20:42.926Z,2.50
2017-11-22T05:23:09.934Z,2.40
2017-11-22T05:25:36.929Z,2.40
2017-11-22T05:28:03.927Z,2.30
2017-11-22T05:30:30.927Z,2.20
2017-11-22T05:32:57.928Z,2.10
2017-11-22T05:35:24.931Z,2.10
2017-11-22T05:37:51.931Z,1.90
2017-11-22T05:40:18.928Z,1.90
2017-11-22T05:42:46.703Z,2.00
2017-11-22T05:45:13.700Z,2.00
2017-11-22T05:47:41.474Z,2.00
2017-11-22T05:50:08.476Z,2.00
2017-11-22T05:52:35.477Z,2.10
2017-11-22T05:55:02.476Z,2.10
2017-11-22T05:57:30.396Z,1.90
2017-11-22T05:59:57.395Z,2.00
2017-11-22T06:02:24.402Z,1.90
2017-11-22T06:04:51.388Z,1.90
2017-11-22T06:07:19.169Z,1.90
2017-11-22T06:09:46.157Z,1.90
2017-11-22T06:12:13.149Z,1.90
2017-11-22T06:14:40.911Z,1.90
2017-11-22T06:17:07.913Z,1.80
2017-11-22T06:19:34.925Z,1.80
2017-11-22T06:22:01.916Z,1.90
2017-11-22T06:24:28.914Z,1.90
2017-11-22T06:26:55.911Z,1.90
2017-11-22T06:29:22.916Z,1.90
2017-11-22T06:31:49.920Z,2.00
2017-11-22T06:34:16.928Z,2.00
2017-11-22T06:36:44.687Z,2.00
2017-11-22T06:39:11.688Z,2.00
2017-11-22T06:41:39.452Z,1.90
2017-11-22T06:44:07.222Z,1.90
2017-11-22T06:46:34.211Z,1.80
2017-11-22T06:49:01.220Z,1.90
2017-11-22T06:51:28.215Z,1.90
2017-11-22T06:53:55.216Z,1.90
2017-11-22T06:56:22.211Z,1.90
2017-11-22T06:58:49.216Z,1.90
2017-11-22T07:01:18.028Z,1.90
2017-11-22T07:03:50.907Z,2.00
2017-11-22T07:06:17.904Z,2.00
2017-11-22T07:08:45.669Z,2.00
2017-11-22T07:11:13.436Z,2.00
2017-11-22T07:13:41.222Z,2.00
2017-11-22T07:16:08.212Z,2.00
2017-11-22T07:18:35.204Z,2.10
2017-11-22T07:21:02.218Z,2.10
2017-11-22T07:23:29.226Z,2.10
2017-11-22T07:25:56.244Z,2.10
2017-11-22T07:28:23.228Z,2.20
2017-11-22T07:30:50.226Z,2.30
2017-11-22T07:33:17.234Z,2.40
2017-11-22T07:35:50.068Z,2.50
2017-11-22T07:38:17.073Z,2.70
2017-11-22T07:40:44.075Z,2.80
2017-11-22T07:43:11.843Z,3.10
2017-11-22T07:45:38.838Z,3.10
2017-11-22T07:48:12.268Z,4.00
2017-11-22T07:50:39.272Z,4.00
2017-11-22T07:53:06.272Z,4.40
2017-11-22T07:55:34.055Z,5.20
2017-11-22T07:58:01.039Z,5.20
2017-11-22T08:00:28.813Z,5.80
2017-11-22T08:03:01.543Z,5.70
2017-11-22T08:05:28.546Z,5.70
2017-11-22T08:07:55.572Z,5.60
2017-11-22T08:10:22.544Z,5.10
2017-11-22T08:12:49.545Z,5.10
2017-11-22T08:15:16.552Z,5.00
2017-11-22T08:17:43.564Z,5.00
2017-11-22T08:20:11.341Z,5.10
2017-11-22T08:22:38.350Z,5.20
2017-11-22T08:25:08.122Z,5.20
2017-11-22T08:27:35.114Z,5.10
2017-11-22T08:30:02.890Z,4.90
2017-11-22T08:32:29.890Z,4.90
2017-11-22T08:34:56.883Z,4.90
2017-11-22T08:37:23.883Z,4.80
2017-11-22T08:39:50.888Z,4.90
2017-11-22T08:42:17.891Z,4.80
2017-11-22T08:44:44.913Z,4.90
2017-11-22T08:47:11.905Z,4.80
2017-11-22T08:49:39.662Z,4.80
2017-11-22T08:52:07.432Z,4.80
2017-11-22T08:54:40.151Z,4.80
2017-11-22T08:57:12.831Z,4.90
2017-11-22T08:59:40.721Z,5.10
2017-11-22T09:02:07.719Z,5.20
2017-11-22T09:04:34.714Z,5.20
2017-11-22T09:07:04.528Z,5.10
2017-11-22T09:09:31.520Z,5.20
2017-11-22T09:12:04.426Z,5.30
2017-11-22T09:14:31.428Z,5.40
2017-11-22T09:16:59.686Z,6.00
2017-11-22T09:19:26.672Z,6.00
2017-11-22T09:21:53.671Z,6.80
2017-11-22T09:24:25.524Z,7.60
2017-11-22T09:26:52.520Z,8.60
2017-11-22T09:29:19.520Z,9.50
2017-11-22T09:31:52.312Z,10.20
2017-11-22T09:34:25.872Z,11.60
2017-11-22T09:36:52.875Z,11.60
2017-11-22T09:39:19.881Z,12.20
2017-11-22T09:41:46.891Z,12.50
2017-11-22T09:44:13.901Z,12.30
2017-11-22T09:46:41.679Z,13.50
2017-11-22T09:49:08.680Z,13.50
2017-11-22T09:51:35.707Z,13.50
2017-11-22T09:54:02.708Z,13.70
2017-11-22T09:56:30.475Z,13.90
2017-11-22T09:58:57.481Z,13.90
2017-11-22T10:01:24.487Z,14.00
2017-11-22T10:03:51.496Z,14.20
2017-11-22T10:06:19.261Z,14.70
2017-11-22T10:08:47.032Z,14.90
2017-11-22T10:11:14.795Z,14.50
2017-11-22T10:13:42.563Z,14.40
2017-11-22T10:16:09.574Z,14.40
2017-11-22T10:18:36.584Z,14.40
2017-11-22T10:21:03.579Z,13.80
2017-11-22T10:23:31.359Z,13.60
2017-11-22T10:25:59.133Z,13.40
2017-11-22T10:28:28.775Z,13.30
2017-11-22T10:30:55.767Z,13.50
2017-11-22T10:33:41.300Z,13.70
2017-11-22T10:36:08.288Z,13.40
2017-11-22T10:38:35.291Z,13.60
2017-11-22T10:41:02.284Z,13.20
2017-11-22T10:43:30.060Z,13.70
2017-11-22T10:45:57.088Z,13.70
2017-11-22T10:48:24.096Z,14.10
2017-11-22T10:50:51.096Z,14.80
2017-11-22T10:53:18.112Z,15.00
2017-11-22T10:55:45.116Z,15.10
2017-11-22T10:58:12.115Z,15.70
2017-11-22T11:00:39.875Z,16.10
2017-11-22T11:03:07.649Z,16.70
2017-11-22T11:05:35.407Z,17.00
2017-11-22T11:08:03.204Z,17.30
2017-11-22T11:10:30.212Z,17.20
2017-11-22T11:12:57.989Z,17.90
2017-11-22T11:15:25.761Z,17.50
2017-11-22T11:17:52.775Z,17.50
2017-11-22T11:20:19.777Z,18.20
2017-11-22T11:22:46.783Z,18.40
2017-11-22T11:25:14.555Z,18.50
2017-11-22T11:30:10.690Z,18.80
2017-11-22T11:32:38.460Z,18.70
2017-11-22T11:35:06.229Z,18.60
2017-11-22T11:37:33.231Z,18.60
2017-11-22T11:40:00.237Z,18.40
2017-11-22T11:42:27.247Z,18.70
2017-11-22T11:44:55.022Z,18.40
2017-11-22T11:47:22.791Z,18.20
2017-11-22T11:49:49.803Z,18.20
2017-11-22T11:52:16.811Z,18.30
2017-11-22T11:54:43.821Z,18.30
2017-11-22T11:57:11.599Z,17.80
2017-11-22T11:59:38.623Z,17.80
2017-11-22T12:02:06.404Z,17.80
2017-11-22T12:04:33.420Z,17.80
2017-11-22T12:07:00.436Z,17.80
2017-11-22T12:09:27.431Z,17.50
2017-11-22T12:11:56.103Z,18.60
2017-11-22T12:14:23.875Z,18.60
2017-11-22T12:16:51.653Z,18.70
2017-11-22T12:19:19.420Z,18.50
2017-11-22T12:21:52.156Z,18.50
2017-11-22T12:24:19.159Z,18.20
2017-11-22T12:26:46.163Z,18.10
2017-11-22T12:29:13.173Z,18.60
2017-11-22T12:31:40.183Z,20.10
2017-11-22T12:34:07.196Z,20.20
2017-11-22T12:36:34.214Z,20.20
2017-11-22T12:39:01.211Z,20.70
2017-11-22T12:41:28.291Z,21.00
2017-11-22T12:43:55.313Z,21.10
2017-11-22T12:46:23.079Z,20.90
2017-11-22T12:48:50.078Z,21.00
2017-11-22T12:51:17.094Z,21.40
2017-11-22T12:53:44.122Z,21.60
2017-11-22T12:56:11.136Z,21.90
2017-11-22T12:58:38.923Z,21.30
2017-11-22T13:01:05.927Z,21.30
2017-11-22T13:03:32.944Z,21.50
2017-11-22T13:06:00.022Z,21.50
2017-11-22T13:08:27.027Z,21.40
2017-11-22T13:10:57.879Z,21.20
2017-11-22T13:13:25.785Z,21.10
2017-11-22T13:15:53.559Z,21.40
2017-11-22T13:18:21.611Z,21.60
2017-11-22T13:20:48.612Z,21.60
2017-11-22T13:23:15.616Z,21.50
2017-11-22T13:25:43.383Z,20.90
2017-11-22T13:28:11.164Z,20.90
2017-11-22T13:30:38.166Z,20.90
2017-11-22T13:33:05.186Z,21.10
2017-11-22T13:35:32.181Z,20.90
2017-11-22T13:37:59.949Z,20.80
2017-11-22T13:40:27.721Z,20.70
2017-11-22T13:42:54.719Z,20.70
2017-11-22T13:45:22.593Z,20.50
2017-11-22T13:47:49.595Z,20.50
2017-11-22T13:50:16.600Z,20.30
2017-11-22T13:52:43.610Z,20.30
2017-11-22T13:55:10.615Z,20.00
2017-11-22T13:57:37.622Z,19.80
2017-11-22T14:00:04.652Z,19.50
2017-11-22T14:02:31.636Z,19.20
2017-11-22T14:04:59.407Z,19.10
2017-11-22T14:07:27.172Z,19.00
2017-11-22T14:09:54.958Z,18.90
2017-11-22T14:12:21.960Z,18.80
2017-11-22T14:14:48.972Z,18.70
2017-11-22T14:17:15.979Z,18.30
2017-11-22T14:19:42.984Z,18.20
2017-11-22T14:22:09.990Z,18.00
2017-11-22T14:24:36.990Z,17.70
2017-11-22T14:27:03.999Z,17.50
2017-11-22T14:29:31.011Z,17.00
2017-11-22T14:31:58.016Z,17.00
2017-11-22T14:34:25.035Z,16.70
2017-11-22T14:36:52.044Z,16.60
2017-11-22T14:39:19.056Z,16.50
2017-11-22T14:41:46.058Z,16.20
2017-11-22T14:44:13.060Z,16.20
2017-11-22T14:46:41.203Z,15.70
2017-11-22T14:49:08.975Z,15.30
2017-11-22T14:51:35.990Z,17.40
2017-11-22T14:54:02.990Z,14.80
2017-11-22T14:56:30.759Z,14.20
2017-11-22T14:58:58.525Z,14.00
2017-11-22T15:01:26.292Z,13.90
2017-11-22T15:03:53.292Z,13.90
2017-11-22T15:06:20.302Z,13.80
2017-11-22T15:08:47.304Z,13.80
2017-11-22T15:11:14.319Z,13.70
2017-11-22T15:13:41.331Z,13.60
2017-11-22T15:16:08.423Z,13.40
2017-11-22T15:18:35.428Z,13.10
2017-11-22T15:21:02.437Z,12.70
2017-11-22T15:23:29.443Z,12.70
2017-11-22T15:25:57.331Z,12.30
2017-11-22T15:28:24.335Z,12.20
2017-11-22T15:30:51.343Z,12.00
2017-11-22T15:33:19.109Z,11.50
2017-11-22T15:35:46.879Z,11.40
2017-11-22T15:38:14.643Z,11.20
2017-11-22T15:40:42.412Z,11.10
2017-11-22T15:43:10.182Z,11.10
2017-11-22T15:45:37.192Z,11.10
2017-11-22T15:48:04.196Z,11.10
2017-11-22T15:50:31.203Z,11.00
2017-11-22T15:52:58.979Z,10.80
2017-11-22T15:55:26.775Z,10.80
2017-11-22T15:57:53.780Z,10.80
2017-11-22T16:00:21.554Z,10.80
2017-11-22T16:02:48.565Z,10.80
2017-11-22T16:05:15.577Z,10.70
2017-11-22T16:07:42.621Z,10.60
2017-11-22T16:10:09.657Z,10.40
2017-11-22T16:12:36.660Z,10.10
2017-11-22T16:15:04.426Z,10.00
2017-11-22T16:17:32.236Z,9.90
2017-11-22T16:19:59.242Z,9.90
2017-11-22T16:22:27.015Z,9.70
2017-11-22T16:24:54.783Z,9.60
2017-11-22T16:29:50.259Z,9.50
2017-11-22T16:32:17.309Z,9.40
2017-11-22T16:34:44.642Z,9.50
2017-11-22T16:37:11.642Z,9.40
2017-11-22T16:39:39.412Z,9.20
2017-11-22T16:42:06.430Z,9.20
2017-11-22T16:44:33.415Z,9.10
2017-11-22T16:47:00.427Z,9.00
2017-11-22T16:49:27.461Z,8.90
2017-11-22T16:51:54.501Z,8.80
2017-11-22T16:54:21.483Z,8.60
2017-11-22T16:56:50.189Z,8.50
2017-11-22T16:59:17.184Z,8.50
2017-11-22T17:01:44.175Z,8.60
2017-11-22T17:04:11.192Z,8.60
2017-11-22T17:06:39.004Z,8.60
2017-11-22T17:09:06.051Z,8.70
2017-11-22T17:11:33.098Z,8.70
2017-11-22T17:14:00.200Z,8.60
2017-11-22T17:16:27.197Z,8.50
2017-11-22T17:18:54.240Z,8.50
2017-11-22T17:21:21.269Z,8.70
2017-11-22T17:23:48.314Z,8.80
2017-11-22T17:26:15.312Z,8.90
2017-11-22T17:28:42.309Z,8.90
2017-11-22T17:31:09.366Z,8.90
2017-11-22T17:33:36.373Z,8.90
2017-11-22T17:36:04.140Z,8.70
2017-11-22T17:38:31.914Z,8.50
2017-11-22T17:40:59.738Z,8.50
2017-11-22T17:43:26.789Z,8.40
2017-11-22T17:45:53.773Z,8.40
2017-11-22T17:48:20.819Z,8.50
2017-11-22T17:50:48.633Z,8.60
2017-11-22T17:53:15.691Z,8.60
2017-11-22T17:55:42.679Z,8.70
2017-11-22T17:58:09.721Z,8.70
2017-11-22T18:00:36.763Z,8.50
2017-11-22T18:03:04.529Z,8.20
2017-11-22T18:05:32.383Z,8.00
2017-11-22T18:08:00.159Z,8.00
2017-11-22T18:10:27.200Z,7.90
2017-11-22T18:12:55.001Z,7.70
2017-11-22T18:15:22.024Z,7.70
2017-11-22T18:17:49.070Z,7.60
2017-11-22T18:20:16.105Z,7.30
2017-11-22T18:22:43.919Z,7.10
2017-11-22T18:25:10.956Z,7.00
2017-11-22T18:27:38.042Z,7.00
2017-11-22T18:30:05.078Z,7.00
2017-11-22T18:32:32.063Z,6.90
2017-11-22T18:34:59.119Z,6.80
2017-11-22T18:37:26.107Z,6.70
2017-11-22T18:39:53.154Z,6.60
2017-11-22T18:42:20.263Z,6.60
2017-11-22T18:44:47.318Z,6.60
2017-11-22T18:47:14.315Z,6.70
2017-11-22T18:49:41.322Z,6.70
2017-11-22T18:52:08.367Z,6.80
2017-11-22T18:54:35.359Z,6.70
2017-11-22T18:57:03.166Z,6.60
2017-11-22T18:59:30.213Z,6.60
2017-11-22T19:01:57.291Z,6.50
2017-11-22T19:04:24.300Z,6.40
2017-11-22T19:06:51.306Z,6.30
2017-11-22T19:09:18.295Z,6.00
2017-11-22T19:11:45.343Z,6.00
2017-11-22T19:14:12.344Z,6.00
2017-11-22T19:16:39.395Z,5.90
2017-11-22T19:19:07.363Z,5.70
2017-11-22T19:21:35.268Z,5.60
2017-11-22T19:24:02.273Z,5.60
2017-11-22T19:26:30.083Z,5.50
2017-11-22T19:28:57.092Z,5.50
2017-11-22T19:31:24.938Z,5.40
2017-11-22T19:33:57.796Z,5.40
2017-11-22T19:36:24.841Z,5.40
2017-11-22T19:38:52.027Z,5.40
2017-11-22T19:41:20.214Z,5.40
2017-11-22T19:43:48.014Z,5.40
2017-11-22T19:46:15.208Z,5.40
2017-11-22T19:48:42.249Z,5.40
2017-11-22T19:51:09.412Z,5.40
2017-11-22T19:53:37.318Z,5.40
2017-11-22T19:56:04.365Z,5.40
2017-11-22T19:58:31.367Z,5.40
2017-11-22T20:00:58.438Z,5.40
2017-11-22T20:03:26.255Z,5.50
2017-11-22T20:05:54.046Z,5.50
2017-11-22T20:08:27.659Z,5.60
2017-11-22T20:10:55.474Z,5.60
2017-11-22T20:13:22.524Z,5.60
2017-11-22T20:15:49.610Z,5.40
2017-11-22T20:18:16.674Z,5.30
2017-11-22T20:20:44.479Z,5.00
2017-11-22T20:23:11.475Z,5.00
2017-11-22T20:25:39.243Z,4.90
2017-11-22T20:28:07.061Z,4.90
2017-11-22T20:30:34.095Z,4.90
2017-11-22T20:33:01.158Z,4.90
2017-11-22T20:35:28.194Z,4.80
2017-11-22T20:37:55.260Z,4.50
2017-11-22T20:40:22.279Z,4.50
2017-11-22T20:42:49.321Z,4.40
2017-11-22T20:45:16.344Z,4.40
2017-11-22T20:47:43.400Z,4.40
2017-11-22T20:50:10.426Z,4.40
2017-11-22T20:52:38.239Z,4.50
2017-11-22T20:55:05.311Z,4.50
2017-11-22T20:57:33.352Z,4.50
2017-11-22T21:00:00.407Z,4.50
2017-11-22T21:02:27.448Z,4.50
2017-11-22T21:04:54.537Z,4.40
2017-11-22T21:07:22.355Z,4.30
2017-11-22T21:09:49.414Z,4.30
2017-11-22T21:12:16.451Z,4.30
2017-11-22T21:14:43.569Z,4.20
2017-11-22T21:17:10.603Z,4.20
2017-11-22T21:19:38.410Z,4.20
2017-11-22T21:22:05.490Z,4.10
2017-11-22T21:24:32.537Z,4.20
2017-11-22T21:26:59.582Z,4.20
2017-11-22T21:29:27.671Z,4.10
2017-11-22T21:31:55.581Z,4.00
2017-11-22T21:34:23.598Z,4.00
2017-11-22T21:36:50.778Z,4.00
2017-11-22T21:39:18.538Z,4.00
2017-11-22T21:41:45.586Z,4.00
2017-11-22T21:44:13.411Z,4.20
2017-11-22T21:46:40.535Z,4.10
2017-11-22T21:49:07.575Z,4.20
2017-11-22T21:51:34.627Z,4.30
2017-11-22T21:54:01.823Z,4.20
2017-11-22T21:56:30.030Z,4.20
2017-11-22T21:58:57.199Z,4.20
2017-11-22T22:01:24.204Z,4.10
2017-11-22T22:03:51.348Z,4.10
2017-11-22T22:06:18.415Z,4.10
2017-11-22T22:08:45.553Z,4.10
2017-11-22T22:11:13.361Z,3.90
2017-11-22T22:13:41.187Z,3.90
2017-11-22T22:16:09.086Z,3.80
2017-11-22T22:18:36.228Z,3.80
2017-11-22T22:21:03.336Z,3.80
2017-11-22T22:23:31.141Z,3.70
2017-11-22T22:25:58.191Z,3.70
2017-11-22T22:28:26.362Z,3.60
2017-11-22T22:30:53.419Z,3.50
2017-11-22T22:33:20.429Z,3.50
2017-11-22T22:35:47.431Z,3.60
2017-11-22T22:38:14.489Z,3.60
2017-11-22T22:40:41.492Z,3.60
2017-11-22T22:43:08.491Z,3.60
2017-11-22T22:45:36.298Z,3.60
2017-11-22T22:48:03.317Z,3.50
2017-11-22T22:50:31.767Z,3.60
2017-11-22T22:52:58.821Z,3.50
2017-11-22T22:55:26.588Z,3.50
2017-11-22T22:57:54.363Z,3.40
2017-11-22T23:00:22.191Z,3.40
2017-11-22T23:02:49.249Z,3.40
2017-11-22T23:05:16.297Z,3.40
2017-11-22T23:07:43.345Z,3.40
2017-11-22T23:10:10.349Z,3.40
2017-11-22T23:12:37.369Z,3.30
2017-11-22T23:15:04.377Z,3.40
2017-11-22T23:17:31.417Z,3.40
2017-11-22T23:19:58.434Z,3.40
2017-11-22T23:22:25.434Z,3.40
2017-11-22T23:24:53.223Z,3.50
2017-11-22T23:27:20.252Z,3.50
2017-11-22T23:29:47.257Z,3.60
2017-11-22T23:32:14.253Z,3.60
2017-11-22T23:34:41.252Z,3.50
2017-11-22T23:37:08.306Z,3.50
2017-11-22T23:39:35.331Z,3.40
2017-11-22T23:42:02.314Z,3.40
2017-11-22T23:44:30.086Z,3.40
2017-11-22T23:46:57.839Z,3.40
2017-11-22T23:49:24.841Z,3.40
2017-11-22T23:51:51.852Z,3.30
2017-11-22T23:54:18.855Z,3.30
2017-11-22T23:56:45.868Z,3.30
2017-11-22T23:59:12.884Z,3.30
